METAR KCLT 192351Z 33003KT 3SM BR BKN007 BKN042 OVC090 01/01 A3013 RMK AO2 SFC VIS 4 SLP208 4/001 931011 60012 T00060006 10011 20006 55002 $ 
METAR KCLT 192251Z 00000KT 3SM BR SCT005 SCT042 BKN090 BKN150 01/01 A3013 RMK AO2 SFC VIS 4 SLP206 T00060006 
METAR KCLT 192151Z 08003KT 2SM BR SCT003 BKN090 OVC120 01/01 A3011 RMK AO2 SFC VIS 3 SNE44 SLP201 P0002 T00110006 
SPECI KCLT 192134Z 00000KT 1 1/2SM -SN BR SCT003 BKN015 OVC085 01/01 A3012 RMK AO2 P0002 
METAR KCLT 192051Z 32003KT 1/2SM SN FG OVC005 01/01 A3014 RMK AO2 SLP210 P0005 60010 T00060006 50000 RVRNO 
SPECI KCLT 192025Z 34003KT 1/2SM SN FG OVC005 01/01 A3013 RMK AO2 TWR VIS 1 CIG 003V008 P0002 RVRNO 
METAR KCLT 191951Z 00000KT 1 1/2SM -SN BR BKN005 OVC014 01/01 A3014 RMK AO2 SFC VIS 1 3/4 SLP208 P0002 T00110006 
SPECI KCLT 191858Z 00000KT 1 1/4SM -SN BR BKN005 BKN014 OVC039 01/01 A3015 RMK AO2 TWR VIS 1 1/2 P0000 
METAR KCLT 191851Z 00000KT 3/4SM -SN BR BKN003 BKN009 OVC039 01/01 A3016 RMK AO2 SFC VIS 1 SLP217 931002 P0003 T00060006 RVRNO 
SPECI KCLT 191817Z 00000KT 3/4SM -SN BR BKN003 OVC009 01/01 A3017 RMK AO2 SFC VIS 1 931002 P0001 RVRNO 
SPECI KCLT 191759Z 03003KT 2SM -SN BR BKN003 OVC009 01/01 A3015 RMK AO2 931002 P0000 
METAR KCLT 191751Z 05004KT 1/2SM -SN BR FEW003 BKN009 OVC012 01/01 A3014 RMK AO2 SFC VIS 1 1/4 SLP209 931002 P0006 60042 T00060006 10033 20006 58024 
SPECI KCLT 191658Z 02003KT 1/2SM -SN BR FEW003 BKN009 OVC012 01/01 A3020 RMK AO2 SFC VIS 3/4 PRESFR P0001 RVRNO 
METAR KCLT 191651Z VRB03KT 1SM -SN BR FEW003 OVC012 01/01 A3022 RMK AO2 TWR VIS 1 1/2 SLP235 P0005 T00060006 RVRNO 
METAR KCLT 191551Z 36003KT 1SM -SN BR SCT003 BKN009 OVC012 01/01 A3022 RMK AO2 SFC VIS 1 1/4 RAE17 SLP237 P0010 T00060006 
SPECI KCLT 191544Z 03003KT 1SM -SN BR FEW003 BKN009 OVC012 01/01 A3021 RMK AO2 RAE17 P0009 RVRNO 
METAR KCLT 191451Z 04003KT 1 1/2SM -RASN BR BKN012 OVC025 01/01 A3021 RMK AO2 TWR VIS 2 PLB1352E30 SLP234 P0009 60021 T00110006 53021 
SPECI KCLT 191435Z 02004KT 2SM -RASN BR BKN014 OVC030 01/01 A3020 RMK AO2 TWR VIS 2 1/2 PLB1352E30 P0006 
SPECI KCLT 191400Z 05006KT 3SM -RASN BR BKN013 BKN023 OVC034 02/01 A3018 RMK AO2 PLB1352E00 P0001 
METAR KCLT 191351Z 05006KT 2SM -RASN BR SCT013 BKN025 OVC031 02/01 A3018 RMK AO2 SFC VIS 2 1/2 VIS 1 3/4 RWY 36 PLB00E48SNB22 SLP224 P0008 T00170011 
SPECI KCLT 191330Z 36005KT 5SM -PLRASN BR SCT025 BKN031 OVC050 02/01 A3019 RMK AO2 PLB00SNB22 P0004 
METAR KCLT 191251Z 09005KT 6SM -RA BR SCT040 OVC055 03/02 A3016 RMK AO2 PLE51 SLP216 P0004 T00280017 
METAR KCLT 191151Z 05004KT 7SM -RAPL BKN034 BKN050 OVC065 03/02 A3015 RMK AO2 PLB50 SLP212 P0002 60003 70003 T00280017 10044 20028 56002 
METAR KCLT 191051Z 00000KT 8SM -RA OVC055 03/02 A3017 RMK AO2 SLP218 P0001 T00330022 
METAR KCLT 190951Z 02003KT 10SM -RA OVC060 03/02 A3013 RMK AO2 RAB17 SLP203 P0000 T00330017 
METAR KCLT 190851Z 00000KT 10SM OVC065 04/01 A3016 RMK AO2 SLP214 VIRGA T00390006 56009 
METAR KCLT 190751Z 00000KT 10SM OVC065 04/01 A3018 RMK AO2 SLP222 T00390006 
METAR KCLT 190651Z COR 19006KT 10SM FEW070 OVC130 04/01 A3015 RMK AO2 SLP211 T00390006 
METAR KCLT 190651Z 19006KT 10SM FEW070 04/01 A3015 RMK AO2 SLP211 T00390006 
METAR KCLT 190551Z VRB03KT 10SM BKN090 04/M01 A3018 RMK AO2 SLP222 T00441006 10056 20039 53010 
METAR KCLT 190451Z 19004KT 10SM OVC095 04/M01 A3016 RMK AO2 SLP213 T00441006 400671006 
METAR KCLT 190351Z 19004KT 10SM FEW080 OVC130 04/M01 A3014 RMK AO2 SLP207 VIRGA T00441011 
METAR KCLT 190251Z 19004KT 10SM BKN080 OVC130 04/M01 A3015 RMK AO2 PRESFR SLP213 T00441011 58012 
METAR KCLT 190151Z COR 00000KT 10SM FEW070 OVC140 04/M01 A3017 RMK AO2 SLP218 T00441006 RMK VIRGA 
METAR KCLT 190151Z 00000KT 10SM FEW070 OVC140 04/M01 A3017 RMK AO2 SLP218 T00441006 
METAR KCLT 190051Z VRB04KT 10SM OVC070 05/M02 A3021 RMK AO2 SLP235 VIRGA T00501017 
METAR KCLT 182351Z 00000KT 10SM OVC085 06/M02 A3019 RMK AO2 SLP225 VIRGA T00561017 10067 20050 55001 
METAR KCLT 182251Z 19003KT 10SM OVC110 05/M01 A3017 RMK AO2 SLP220 VIRGA T00501006 
METAR KCLT 182151Z 00000KT 10SM OVC130 06/M01 A3017 RMK AO2 SLP219 VIRGA E-S-W T00561011 
METAR KCLT 182051Z 00000KT 10SM OVC130 06/M03 A3019 RMK AO2 SLP226 VIRGA T00611028 55009 
METAR KCLT 181951Z 17006KT 10SM OVC140 06/M03 A3019 RMK AO2 SLP225 T00611033 
METAR KCLT 181851Z 00000KT 10SM OVC140 06/M04 A3021 RMK AO2 SLP234 T00611044 
METAR KCLT 181751Z VRB03KT 10SM BKN140 OVC250 07/M05 A3022 RMK AO2 SLP235 T00671050 10067 21006 58022 
METAR KCLT 181651Z 00000KT 10SM SCT140 OVC250 07/M06 A3024 RMK AO2 SLP242 T00671056 
METAR KCLT 181551Z 08006KT 10SM SCT150 BKN250 06/M06 A3027 RMK AO2 SLP253 T00611056 
METAR KCLT 181451Z 07007KT 10SM SCT150 BKN250 06/M04 A3028 RMK AO2 SLP257 T00561044 50013 
METAR KCLT 181351Z 05010KT 10SM SCT150 BKN250 03/M06 A3030 RMK AO2 PRESRR SLP263 T00331056 
METAR KCLT 181251Z VRB05KT 10SM SCT180 SCT250 01/M05 A3026 RMK AO2 SLP249 T00111050 
METAR KCLT 181151Z 02003KT 10SM FEW140 SCT250 M01/M06 A3025 RMK AO2 SLP244 T10061056 10028 21006 53018 
METAR KCLT 181051Z 34003KT 10SM SCT140 OVC250 00/M06 A3023 RMK AO2 SLP239 T00001056 
METAR KCLT 180951Z 01005KT 10SM OVC250 M01/M06 A3020 RMK AO2 SLP229 T10061056 
METAR KCLT 180851Z VRB05KT 10SM FEW140 OVC250 01/M06 A3019 RMK AO2 SLP224 T00111056 51014 
METAR KCLT 180751Z 03007KT 10SM BKN140 OVC250 02/M05 A3018 RMK AO2 SLP222 T00221050 
METAR KCLT 180651Z 01007KT 10SM BKN250 02/M04 A3017 RMK AO2 SLP217 T00221044 
METAR KCLT 180551Z 02007KT 10SM CLR 02/M04 A3015 RMK AO2 SLP210 T00171039 10083 21006 51015 
METAR KCLT 180451Z 32005KT 10SM CLR 01/M02 A3014 RMK AO2 SLP207 T00111022 401170011 
METAR KCLT 180351Z 34006KT 10SM CLR 03/M05 A3011 RMK AO2 SLP198 T00331050 
METAR KCLT 180251Z 32007KT 10SM CLR 03/M03 A3010 RMK AO2 SLP195 T00331033 53026 
METAR KCLT 180151Z 34005KT 10SM CLR 04/M03 A3008 RMK AO2 SLP185 T00441028 
METAR KCLT 180051Z 34005KT 10SM FEW150 SCT250 06/M02 A3005 RMK AO2 SLP174 T00611017 
METAR KCLT 172351Z 29004KT 10SM SCT150 SCT250 08/04 A3002 RMK AO2 SLP167 T00780044 10117 20072 53028 
METAR KCLT 172251Z 30003KT 10SM SCT045 SCT150 BKN250 09/08 A2999 RMK AO2 SLP155 T00890078 
METAR KCLT 172151Z 00000KT 10SM SCT040 SCT150 BKN250 11/07 A2996 RMK AO2 SLP143 T01060072 
METAR KCLT 172051Z VRB03KT 10SM FEW025 BKN150 OVC250 11/08 A2994 RMK AO2 SLP137 T01110078 53010 
METAR KCLT 171951Z VRB04KT 10SM FEW025 BKN150 OVC250 11/09 A2992 RMK AO2 SLP132 T01110089 
METAR KCLT 171851Z VRB03KT 10SM SCT025 BKN150 OVC250 11/09 A2992 RMK AO2 SLP131 T01110089 
METAR KCLT 171751Z 00000KT 8SM SCT015 BKN150 OVC250 11/09 A2991 RMK AO2 SLP127 60000 T01110089 10111 20078 55004 
SPECI KCLT 171723Z VRB04KT 8SM SCT010 OVC150 11/09 A2992 RMK AO2 
METAR KCLT 171651Z VRB03KT 6SM BR BKN008 OVC055 11/09 A2991 RMK AO2 SLP127 T01060089 
METAR KCLT 171551Z 00000KT 5SM BR OVC006 09/09 A2992 RMK AO2 CIG 005V009 SLP132 T00940089 
METAR KCLT 171451Z VRB03KT 3SM BR OVC004 09/08 A2992 RMK AO2 SFC VIS 4 SLP132 60000 T00890083 52008 
METAR KCLT 171351Z VRB03KT 3SM BR OVC004 08/08 A2991 RMK AO2 SLP129 T00830083 
SPECI KCLT 171302Z VRB03KT 3SM BR OVC004 08/08 A2991 RMK AO2 
METAR KCLT 171251Z 00000KT 3SM BR OVC006 08/08 A2990 RMK AO2 SFC VIS 3 RAB1153E03 SLP126 P0000 T00780078 
METAR KCLT 171151Z VRB03KT 5SM BR OVC006 08/08 A2990 RMK AO2 PRESRR SLP123 60016 70029 T00780078 10078 20067 53008 
METAR KCLT 171051Z 21004KT 3SM OVC006 08/07 A2988 RMK AO2 SFC VIS 7 RAB0952E05 SLP116 P0000 T00780072 
METAR KCLT 170951Z VRB03KT 3SM BR OVC006 08/07 A2988 RMK AO2 SFC VIS 5 RAE36 CIG 003V008 SLP119 P0001 T00780072 
METAR KCLT 170851Z VRB04KT 2 1/2SM -RA BR SCT004 BKN008 OVC038 07/07 A2987 RMK AO2 TWR VIS 3 SLP115 P0010 60015 T00720067 56018 
SPECI KCLT 170835Z VRB05KT 3SM -RA BR FEW006 SCT026 OVC037 07/07 A2987 RMK AO2 SFC VIS 4 P0008 
SPECI KCLT 170805Z 18009KT 2 1/2SM RA BR BKN018 BKN026 OVC031 07/07 A2988 RMK AO2 TWR VIS 3 P0003 
METAR KCLT 170751Z VRB03KT 3SM RA BR FEW004 OVC018 07/06 A2989 RMK AO2 RAB07 SLP121 P0002 T00670061 
METAR KCLT 170651Z 00000KT 7SM BKN022 OVC028 07/06 A2987 RMK AO2 RAE45 SLP115 P0003 T00720061 
METAR KCLT 170551Z VRB04KT 5SM -RA BR OVC022 07/06 A2993 RMK AO2 SLP133 P0005 60012 T00720061 10089 20072 56015 
METAR KCLT 170451Z 23005KT 6SM -RA BR FEW027 BKN065 OVC085 07/06 A2993 RMK AO2 SLP133 P0004 T00720061 401000006 
SPECI KCLT 170417Z VRB05KT 7SM -RA BKN027 OVC080 07/06 A2996 RMK AO2 P0001 
METAR KCLT 170351Z 25007KT 8SM -RA FEW027 BKN075 OVC090 07/06 A2996 RMK AO2 SLP144 P0001 T00720056 
METAR KCLT 170251Z 21008KT 10SM -RA BKN095 OVC110 08/06 A2997 RMK AO2 SLP148 P0001 60002 T00780061 58007 
METAR KCLT 170151Z 21006KT 10SM -RA BKN080 OVC090 08/06 A2999 RMK AO2 SLP158 P0001 T00830056 
METAR KCLT 170051Z 21005KT 10SM -RA OVC090 09/05 A3002 RMK AO2 SLP166 P0000 T00890050 
METAR KCLT 162351Z 17004KT 10SM -RA BKN075 OVC090 08/05 A2999 RMK AO2 RAB2256 SLP158 P0000 60001 T00830050 10100 20083 58006 
METAR KCLT 162251Z 20003KT 10SM OVC085 09/05 A3002 RMK AO2 RAE36 SLP166 P0000 T00890050 
METAR KCLT 162151Z 18005KT 10SM -RA FEW055 BKN085 OVC110 09/04 A2999 RMK AO2 RAB2053E03B21 SLP156 P0001 T00890044 
METAR KCLT 162051Z 18004KT 10SM OVC055 09/04 A3001 RMK AO2 RAB36E49 SLP163 P0000 60000 T00940039 55008 
METAR KCLT 161951Z 00000KT 10SM SCT080 BKN100 OVC200 09/04 A3001 RMK AO2 RAB1857E46 SLP163 P0000 T00940044 
METAR KCLT 161851Z VRB05KT 10SM SCT090 BKN110 OVC200 10/01 A3003 RMK AO2 RAB14E24 SLP169 P0000 T01000011 
METAR KCLT 161751Z 20005KT 10SM BKN095 OVC200 09/01 A3003 RMK AO2 SLP171 60000 T00940011 10094 20011 58026 
METAR KCLT 161651Z 21004KT 10SM BKN080 OVC100 09/01 A3007 RMK AO2 RAE24 SLP182 P0000 T00890011 
METAR KCLT 161551Z 18006KT 10SM -RA BKN095 BKN150 OVC200 08/03 A3009 RMK AO2 RAB15E27B46 SLP190 P0000 T00830028